createdAt,value
2018-03-08T00:00:05.633Z,0.00
2018-03-08T00:01:05.909Z,0.00
2018-03-08T00:02:06.158Z,0.00
2018-03-08T00:03:06.392Z,0.00
2018-03-08T00:04:06.641Z,0.00
2018-03-08T00:05:06.887Z,0.00
2018-03-08T00:06:07.132Z,0.00
2018-03-08T00:07:07.384Z,0.00
2018-03-08T00:08:07.642Z,0.00
2018-03-08T00:09:07.885Z,0.00
2018-03-08T00:10:08.137Z,0.00
2018-03-08T00:11:08.382Z,0.00
2018-03-08T00:12:08.632Z,0.00
2018-03-08T00:13:08.880Z,0.00
2018-03-08T00:14:09.130Z,0.00
2018-03-08T00:15:09.381Z,0.00
2018-03-08T00:16:09.631Z,0.00
2018-03-08T00:17:09.885Z,0.00
2018-03-08T00:18:10.135Z,0.00
2018-03-08T00:19:10.371Z,0.00
2018-03-08T00:20:10.622Z,0.00
2018-03-08T00:21:10.872Z,0.00
2018-03-08T00:22:11.146Z,0.00
2018-03-08T00:23:11.395Z,0.00
2018-03-08T00:24:11.645Z,0.00
2018-03-08T00:25:11.894Z,0.00
2018-03-08T00:26:12.141Z,0.00
2018-03-08T00:27:12.387Z,0.00
2018-03-08T00:28:12.639Z,0.00
2018-03-08T00:29:12.895Z,0.00
2018-03-08T00:30:13.146Z,0.00
2018-03-08T00:31:13.392Z,0.00
2018-03-08T00:32:13.636Z,0.00
2018-03-08T00:33:13.887Z,0.00
2018-03-08T00:34:14.140Z,0.00
2018-03-08T00:35:14.396Z,0.00
2018-03-08T00:36:14.643Z,0.00
2018-03-08T00:37:14.884Z,0.00
2018-03-08T00:38:15.133Z,0.00
2018-03-08T00:39:15.367Z,0.00
2018-03-08T00:40:15.618Z,0.00
2018-03-08T00:41:15.870Z,0.00
2018-03-08T00:42:16.114Z,0.00
2018-03-08T00:43:16.363Z,0.00
2018-03-08T00:44:16.616Z,0.00
2018-03-08T00:45:16.863Z,0.00
2018-03-08T00:46:17.112Z,0.00
2018-03-08T00:47:17.357Z,0.00
2018-03-08T00:48:17.613Z,0.00
2018-03-08T00:49:17.867Z,0.00
2018-03-08T00:50:18.104Z,0.00
2018-03-08T00:51:18.354Z,0.00
2018-03-08T00:52:18.610Z,0.00
2018-03-08T00:53:18.852Z,0.00
2018-03-08T00:54:19.101Z,0.00
2018-03-08T00:55:19.360Z,0.00
2018-03-08T00:56:19.598Z,0.00
2018-03-08T00:57:19.844Z,0.00
2018-03-08T00:58:20.095Z,0.00
2018-03-08T00:59:20.346Z,0.00
2018-03-08T01:00:20.589Z,0.00
2018-03-08T01:01:20.831Z,0.00
2018-03-08T01:02:21.082Z,0.00
2018-03-08T01:03:21.333Z,0.00
2018-03-08T01:04:21.585Z,0.00
2018-03-08T01:05:21.834Z,0.00
2018-03-08T01:06:22.105Z,0.00
2018-03-08T01:07:22.353Z,0.00
2018-03-08T01:08:22.602Z,0.00
2018-03-08T01:09:22.852Z,0.00
2018-03-08T01:10:23.108Z,0.00
2018-03-08T01:11:23.365Z,0.00
2018-03-08T01:12:23.601Z,0.00
2018-03-08T01:13:23.847Z,0.00
2018-03-08T01:14:24.098Z,0.00
2018-03-08T01:15:24.345Z,0.00
2018-03-08T01:16:24.592Z,0.00
2018-03-08T01:17:24.843Z,0.00
2018-03-08T01:18:25.094Z,0.00
2018-03-08T01:19:25.339Z,0.00
2018-03-08T01:20:25.593Z,0.00
2018-03-08T01:21:25.844Z,0.00
2018-03-08T01:22:26.093Z,0.00
2018-03-08T01:23:26.344Z,0.00
2018-03-08T01:24:26.591Z,0.00
2018-03-08T01:25:26.846Z,0.00
2018-03-08T01:26:27.095Z,0.00
2018-03-08T01:27:27.347Z,0.00
2018-03-08T01:28:27.594Z,0.00
2018-03-08T01:29:27.847Z,0.00
2018-03-08T01:30:28.091Z,0.00
2018-03-08T01:31:28.343Z,0.00
2018-03-08T01:32:28.593Z,0.00
2018-03-08T01:33:28.842Z,0.00
2018-03-08T01:34:29.090Z,0.00
2018-03-08T01:35:29.342Z,0.00
2018-03-08T01:36:29.591Z,0.00
2018-03-08T01:37:29.835Z,0.00
2018-03-08T01:38:30.091Z,0.00
2018-03-08T01:39:30.338Z,0.00
2018-03-08T01:40:30.586Z,0.00
2018-03-08T01:41:30.837Z,0.00
2018-03-08T01:42:31.087Z,0.00
2018-03-08T01:43:31.376Z,0.00
2018-03-08T01:44:31.587Z,0.00
2018-03-08T01:45:31.833Z,0.00
2018-03-08T01:46:32.088Z,0.00
2018-03-08T01:47:32.340Z,0.00
2018-03-08T01:48:32.593Z,0.00
2018-03-08T01:49:32.861Z,0.00
2018-03-08T01:50:33.140Z,0.00
2018-03-08T01:51:33.359Z,0.00
2018-03-08T01:52:33.613Z,0.00
2018-03-08T01:53:33.858Z,0.00
2018-03-08T01:54:34.110Z,0.00
2018-03-08T01:55:34.363Z,0.00
2018-03-08T01:56:34.629Z,0.00
2018-03-08T01:57:34.869Z,0.00
2018-03-08T01:58:35.117Z,0.00
2018-03-08T01:59:35.363Z,0.00
2018-03-08T02:00:35.614Z,0.00
2018-03-08T02:01:35.865Z,0.00
2018-03-08T02:02:36.110Z,0.00
2018-03-08T02:03:36.376Z,0.00
2018-03-08T02:04:36.623Z,0.00
2018-03-08T02:05:36.876Z,0.00
2018-03-08T02:06:37.123Z,0.00
2018-03-08T02:07:37.375Z,0.00
2018-03-08T02:08:37.624Z,0.00
2018-03-08T02:09:37.881Z,0.00
2018-03-08T02:10:38.128Z,0.00
2018-03-08T02:11:38.372Z,0.00
2018-03-08T02:12:38.622Z,0.00
2018-03-08T02:13:38.877Z,0.00
2018-03-08T02:14:39.130Z,0.00
2018-03-08T02:15:39.379Z,0.00
2018-03-08T02:16:39.627Z,0.00
2018-03-08T02:17:39.901Z,0.00
2018-03-08T02:18:40.152Z,0.00
2018-03-08T02:19:40.409Z,0.00
2018-03-08T02:20:40.660Z,0.00
2018-03-08T02:21:40.914Z,0.00
2018-03-08T02:22:41.157Z,0.00
2018-03-08T02:23:41.407Z,0.00
2018-03-08T02:24:41.658Z,0.00
2018-03-08T02:25:41.909Z,0.00
2018-03-08T02:26:42.159Z,0.00
2018-03-08T02:27:42.405Z,0.00
2018-03-08T02:28:42.656Z,0.00
2018-03-08T02:29:42.909Z,0.00
2018-03-08T02:30:43.153Z,0.00
2018-03-08T02:31:43.410Z,0.00
2018-03-08T02:32:43.657Z,0.00
2018-03-08T02:33:43.908Z,0.00
2018-03-08T02:34:44.159Z,0.00
2018-03-08T02:35:44.416Z,0.00
2018-03-08T02:36:44.656Z,0.00
2018-03-08T02:37:44.907Z,0.00
2018-03-08T02:38:45.161Z,0.00
2018-03-08T02:39:45.409Z,0.00
2018-03-08T02:40:45.659Z,0.00
2018-03-08T02:41:45.912Z,0.00
2018-03-08T02:42:46.169Z,0.00
2018-03-08T02:43:46.428Z,0.00
2018-03-08T02:44:46.672Z,0.00
2018-03-08T02:45:46.943Z,0.00
2018-03-08T02:46:47.198Z,0.00
2018-03-08T02:47:47.444Z,0.00
2018-03-08T02:48:47.689Z,0.00
2018-03-08T02:49:47.941Z,0.00
2018-03-08T02:50:48.199Z,0.00
2018-03-08T02:51:48.444Z,0.00
2018-03-08T02:52:48.696Z,0.00
2018-03-08T02:53:48.942Z,0.00
2018-03-08T02:54:49.194Z,0.00
2018-03-08T02:55:49.443Z,0.00
2018-03-08T02:56:49.695Z,0.00
2018-03-08T02:57:49.944Z,0.00
2018-03-08T02:58:50.195Z,0.00
2018-03-08T02:59:50.454Z,0.00
2018-03-08T03:00:50.711Z,0.00
2018-03-08T03:01:50.959Z,0.00
2018-03-08T03:02:51.210Z,0.00
2018-03-08T03:03:51.458Z,0.00
2018-03-08T03:04:51.707Z,0.00
2018-03-08T03:05:51.956Z,0.00
2018-03-08T03:06:52.208Z,0.00
2018-03-08T03:07:52.461Z,0.00
2018-03-08T03:08:52.711Z,0.00
2018-03-08T03:09:53.030Z,0.00
2018-03-08T03:10:53.213Z,0.00
2018-03-08T03:11:53.457Z,0.00
2018-03-08T03:12:53.703Z,0.00
2018-03-08T03:13:53.952Z,0.00
2018-03-08T03:14:54.202Z,0.00
2018-03-08T03:15:54.454Z,0.00
2018-03-08T03:16:54.701Z,0.00
2018-03-08T03:17:54.952Z,0.00
2018-03-08T03:18:55.205Z,0.00
2018-03-08T03:19:55.455Z,0.00
2018-03-08T03:20:55.706Z,0.00
2018-03-08T03:21:55.956Z,0.00
2018-03-08T03:22:56.207Z,0.00
2018-03-08T03:23:56.455Z,0.00
2018-03-08T03:24:56.711Z,0.00
2018-03-08T03:25:56.964Z,0.00
2018-03-08T03:26:57.208Z,0.00
2018-03-08T03:27:57.461Z,0.00
2018-03-08T03:28:57.710Z,0.00
2018-03-08T03:29:57.957Z,0.00
2018-03-08T03:30:58.208Z,0.00
2018-03-08T03:31:58.454Z,0.00
2018-03-08T03:32:58.703Z,0.00
2018-03-08T03:33:58.949Z,0.00
2018-03-08T03:34:59.196Z,0.00
2018-03-08T03:35:59.449Z,0.00
2018-03-08T03:36:59.702Z,0.00
2018-03-08T03:37:59.954Z,0.00
2018-03-08T03:39:00.203Z,0.00
2018-03-08T03:40:00.457Z,0.00
2018-03-08T03:41:00.707Z,0.00
2018-03-08T03:42:00.954Z,0.00
2018-03-08T03:43:01.218Z,0.00
2018-03-08T03:44:01.470Z,0.00
2018-03-08T03:45:01.717Z,0.00
2018-03-08T03:46:01.973Z,0.00
2018-03-08T03:47:02.220Z,0.00
2018-03-08T03:48:02.470Z,0.00
2018-03-08T03:49:02.720Z,0.00
2018-03-08T03:50:02.972Z,0.00
2018-03-08T03:51:03.220Z,0.00
2018-03-08T03:52:03.470Z,0.00
2018-03-08T03:53:03.716Z,0.00
2018-03-08T03:54:03.967Z,0.00
2018-03-08T03:55:04.222Z,0.00
2018-03-08T03:56:04.471Z,0.00
2018-03-08T03:57:04.743Z,0.00
2018-03-08T03:58:04.994Z,0.00
2018-03-08T03:59:05.262Z,0.00
2018-03-08T04:00:05.495Z,0.00
2018-03-08T04:01:05.741Z,0.00
2018-03-08T04:02:05.984Z,0.00
2018-03-08T04:03:06.234Z,0.00
2018-03-08T04:04:06.481Z,0.00
2018-03-08T04:05:06.739Z,0.00
2018-03-08T04:06:06.984Z,0.00
2018-03-08T04:07:07.235Z,0.00
2018-03-08T04:08:07.487Z,0.00
2018-03-08T04:09:07.741Z,0.00
2018-03-08T04:10:07.989Z,0.00
2018-03-08T04:11:08.236Z,0.00
2018-03-08T04:12:08.525Z,0.00
2018-03-08T04:13:08.735Z,0.00
2018-03-08T04:14:08.985Z,0.00
2018-03-08T04:15:09.242Z,0.00
2018-03-08T04:16:09.489Z,0.00
2018-03-08T04:17:09.739Z,0.00
2018-03-08T04:18:09.991Z,4.00
2018-03-08T04:19:10.242Z,0.00
2018-03-08T04:20:10.497Z,0.00
2018-03-08T04:21:10.740Z,0.00
2018-03-08T04:22:10.993Z,0.00
2018-03-08T04:23:11.239Z,0.00
2018-03-08T04:24:11.491Z,0.00
2018-03-08T04:25:11.742Z,0.00
2018-03-08T04:26:11.994Z,0.00
2018-03-08T04:27:12.242Z,0.00
2018-03-08T04:28:12.490Z,0.00
2018-03-08T04:29:12.741Z,0.00
2018-03-08T04:30:12.990Z,0.00
2018-03-08T04:31:13.240Z,0.00
2018-03-08T04:32:13.490Z,0.00
2018-03-08T04:33:13.742Z,0.00
2018-03-08T04:34:13.989Z,0.00
2018-03-08T04:35:14.239Z,0.00
2018-03-08T04:36:14.489Z,0.00
2018-03-08T04:37:14.739Z,0.00
2018-03-08T04:38:14.989Z,0.00
2018-03-08T04:39:15.236Z,0.00
2018-03-08T04:40:15.502Z,0.00
2018-03-08T04:41:15.754Z,0.00
2018-03-08T04:42:16.005Z,0.00
2018-03-08T04:43:16.252Z,0.00
2018-03-08T04:44:16.504Z,0.00
2018-03-08T04:45:16.751Z,0.00
2018-03-08T04:46:16.997Z,0.00
2018-03-08T04:47:17.251Z,0.00
2018-03-08T04:48:17.502Z,0.00
2018-03-08T04:49:17.752Z,0.00
2018-03-08T04:50:18.001Z,0.00
2018-03-08T04:51:18.249Z,0.00
2018-03-08T04:52:18.498Z,0.00
2018-03-08T04:53:18.753Z,0.00
2018-03-08T04:54:19.045Z,0.00
2018-03-08T04:55:19.252Z,0.00
2018-03-08T04:56:19.500Z,0.00
2018-03-08T04:57:19.756Z,0.00
2018-03-08T04:58:20.017Z,0.00
2018-03-08T04:59:20.258Z,0.00
2018-03-08T05:00:20.507Z,0.00
2018-03-08T05:01:20.759Z,0.00
2018-03-08T05:02:21.009Z,0.00
2018-03-08T05:03:21.262Z,0.00
2018-03-08T05:04:21.512Z,0.00
2018-03-08T05:05:21.764Z,0.00
2018-03-08T05:06:22.018Z,0.00
2018-03-08T05:07:22.274Z,0.00
2018-03-08T05:08:22.547Z,0.00
2018-03-08T05:09:22.791Z,0.00
2018-03-08T05:10:23.044Z,0.00
2018-03-08T05:11:23.292Z,0.00
2018-03-08T05:12:23.544Z,0.00
2018-03-08T05:13:23.796Z,0.00
2018-03-08T05:14:24.048Z,4.00
2018-03-08T05:15:24.300Z,0.00
2018-03-08T05:16:24.555Z,4.00
2018-03-08T05:17:24.807Z,0.00
2018-03-08T05:18:25.061Z,0.00
2018-03-08T05:19:25.396Z,0.00
2018-03-08T05:20:25.568Z,4.00
2018-03-08T05:21:25.819Z,4.00
2018-03-08T05:22:26.069Z,4.00
2018-03-08T05:23:26.321Z,4.00
2018-03-08T05:24:26.569Z,4.00
2018-03-08T05:25:26.819Z,0.00
2018-03-08T05:26:27.067Z,4.00
2018-03-08T05:27:27.320Z,4.00
2018-03-08T05:28:27.569Z,8.00
2018-03-08T05:29:27.820Z,4.00
2018-03-08T05:30:28.069Z,8.00
2018-03-08T05:31:28.321Z,8.00
2018-03-08T05:32:28.562Z,8.00
2018-03-08T05:33:28.810Z,4.00
2018-03-08T05:34:29.059Z,8.00
2018-03-08T05:35:29.310Z,8.00
2018-03-08T05:36:29.580Z,8.00
2018-03-08T05:37:29.833Z,8.00
2018-03-08T05:38:30.085Z,8.00
2018-03-08T05:39:30.338Z,12.00
2018-03-08T05:40:30.590Z,12.00
2018-03-08T05:41:30.842Z,12.00
2018-03-08T05:42:31.094Z,16.00
2018-03-08T05:43:31.342Z,20.00
2018-03-08T05:44:31.600Z,36.00
2018-03-08T05:45:31.848Z,48.00
2018-03-08T05:46:32.102Z,64.00
2018-03-08T05:47:32.360Z,68.00
2018-03-08T05:48:32.602Z,76.00
2018-03-08T05:49:32.859Z,88.00
2018-03-08T05:50:33.112Z,92.00
2018-03-08T05:51:33.360Z,96.00
2018-03-08T05:52:33.617Z,96.00
2018-03-08T05:53:33.870Z,104.00
2018-03-08T05:54:34.121Z,100.00
2018-03-08T05:55:34.372Z,104.00
2018-03-08T05:56:34.621Z,104.00
2018-03-08T05:57:34.875Z,104.00
2018-03-08T05:58:35.119Z,104.00
2018-03-08T05:59:35.367Z,116.00
2018-03-08T06:00:35.622Z,128.00
2018-03-08T06:01:35.873Z,124.00
2018-03-08T06:02:36.121Z,136.00
2018-03-08T06:03:36.370Z,144.00
2018-03-08T06:04:36.618Z,132.00
2018-03-08T06:05:36.868Z,124.00
2018-03-08T06:06:37.119Z,120.00
2018-03-08T06:07:37.369Z,128.00
2018-03-08T06:08:37.624Z,136.00
2018-03-08T06:09:37.876Z,140.00
2018-03-08T06:10:38.129Z,140.00
2018-03-08T06:11:38.382Z,144.00
2018-03-08T06:12:38.635Z,164.00
2018-03-08T06:13:38.885Z,180.00
2018-03-08T06:14:39.136Z,180.00
2018-03-08T06:15:39.392Z,196.00
2018-03-08T06:16:39.641Z,204.00
2018-03-08T06:17:39.895Z,200.00
2018-03-08T06:18:40.148Z,220.00
2018-03-08T06:19:40.398Z,216.00
2018-03-08T06:20:40.672Z,236.00
2018-03-08T06:21:40.905Z,252.00
2018-03-08T06:22:41.158Z,252.00
2018-03-08T06:23:41.416Z,280.00
2018-03-08T06:24:41.667Z,284.00
2018-03-08T06:25:41.913Z,276.00
2018-03-08T06:26:42.166Z,292.00
2018-03-08T06:27:42.414Z,352.00
2018-03-08T06:28:42.673Z,376.00
2018-03-08T06:29:42.917Z,408.00
2018-03-08T06:30:43.175Z,460.00
2018-03-08T06:31:43.432Z,480.00
2018-03-08T06:32:43.682Z,432.00
2018-03-08T06:33:43.933Z,480.00
2018-03-08T06:34:44.183Z,544.00
2018-03-08T06:35:44.437Z,556.00
2018-03-08T06:36:44.692Z,572.00
2018-03-08T06:37:44.949Z,576.00
2018-03-08T06:38:45.200Z,588.00
2018-03-08T06:39:45.456Z,600.00
2018-03-08T06:40:45.712Z,632.00
2018-03-08T06:41:45.964Z,764.00
2018-03-08T06:42:46.217Z,932.00
2018-03-08T06:43:46.474Z,924.00
2018-03-08T06:44:46.769Z,836.00
2018-03-08T06:45:46.980Z,616.00
2018-03-08T06:46:47.235Z,488.00
2018-03-08T06:47:47.483Z,416.00
2018-03-08T06:48:47.736Z,360.00
2018-03-08T06:49:47.987Z,368.00
2018-03-08T06:50:48.237Z,392.00
2018-03-08T06:51:48.487Z,388.00
2018-03-08T06:52:48.741Z,392.00
2018-03-08T06:53:48.995Z,408.00
2018-03-08T06:54:49.245Z,392.00
2018-03-08T06:55:49.500Z,376.00
2018-03-08T06:56:49.751Z,404.00
2018-03-08T06:57:50.693Z,444.00
2018-03-08T06:58:50.254Z,532.00
2018-03-08T06:59:50.506Z,616.00
2018-03-08T07:00:50.760Z,680.00
2018-03-08T07:01:51.013Z,692.00
2018-03-08T07:02:51.275Z,704.00
2018-03-08T07:03:51.518Z,772.00
2018-03-08T07:04:51.772Z,748.00
2018-03-08T07:05:52.027Z,728.00
2018-03-08T07:06:52.273Z,688.00
2018-03-08T07:07:52.526Z,668.00
2018-03-08T07:08:52.780Z,732.00
2018-03-08T07:09:53.056Z,940.00
2018-03-08T07:10:53.284Z,1060.00
2018-03-08T07:11:53.537Z,1196.00
2018-03-08T07:12:53.786Z,1112.00
2018-03-08T07:13:54.038Z,884.00
2018-03-08T07:14:54.287Z,616.00
2018-03-08T07:15:54.547Z,568.00
2018-03-08T07:16:54.795Z,752.00
2018-03-08T07:17:55.058Z,952.00
2018-03-08T07:18:55.312Z,1088.00
2018-03-08T07:19:55.561Z,1216.00
2018-03-08T07:20:55.816Z,1040.00
2018-03-08T07:21:56.066Z,952.00
2018-03-08T07:22:56.314Z,1012.00
2018-03-08T07:23:56.569Z,984.00
2018-03-08T07:24:56.823Z,876.00
2018-03-08T07:25:57.072Z,840.00
2018-03-08T07:26:57.326Z,760.00
2018-03-08T07:27:57.576Z,768.00
2018-03-08T07:28:57.826Z,820.00
2018-03-08T07:29:58.078Z,864.00
2018-03-08T07:30:58.331Z,888.00
2018-03-08T07:31:58.583Z,932.00
2018-03-08T07:32:58.840Z,996.00
2018-03-08T07:33:59.088Z,1120.00
2018-03-08T07:34:59.335Z,1412.00
2018-03-08T07:35:59.593Z,1604.00
2018-03-08T07:36:59.844Z,1536.00
2018-03-08T07:38:00.101Z,1624.00
2018-03-08T07:39:00.348Z,1820.00
2018-03-08T07:40:00.601Z,1812.00
2018-03-08T07:41:00.852Z,1976.00
2018-03-08T07:42:01.105Z,2492.00
2018-03-08T07:43:01.356Z,3360.00
2018-03-08T07:44:01.614Z,2960.00
2018-03-08T07:45:01.876Z,2888.00
2018-03-08T07:46:02.111Z,2544.00
2018-03-08T07:47:02.363Z,2392.00
2018-03-08T07:48:02.614Z,2484.00
2018-03-08T07:49:02.872Z,2892.00
2018-03-08T07:50:03.120Z,2636.00
2018-03-08T07:51:03.369Z,2472.00
2018-03-08T07:52:03.622Z,3196.00
2018-03-08T07:53:03.873Z,3608.00
2018-03-08T07:54:04.128Z,3212.00
2018-03-08T07:55:04.363Z,2572.00
2018-03-08T07:56:04.623Z,2680.00
2018-03-08T07:57:04.872Z,3256.00
2018-03-08T07:58:05.122Z,3572.00
2018-03-08T07:59:05.384Z,3660.00
2018-03-08T08:00:05.628Z,2940.00
2018-03-08T08:01:05.877Z,3448.00
2018-03-08T08:02:06.134Z,4116.00
2018-03-08T08:03:06.388Z,3580.00
2018-03-08T08:04:06.638Z,4104.00
2018-03-08T08:05:06.892Z,4488.00
2018-03-08T08:06:07.146Z,4796.00
2018-03-08T08:07:07.402Z,4092.00
2018-03-08T08:08:07.652Z,4012.00
2018-03-08T08:09:07.906Z,3784.00
2018-03-08T08:10:08.160Z,3540.00
2018-03-08T08:11:08.412Z,3648.00
2018-03-08T08:12:08.665Z,3660.00
2018-03-08T08:13:08.916Z,3980.00
2018-03-08T08:14:09.162Z,3772.00
2018-03-08T08:15:09.414Z,3720.00
2018-03-08T08:16:09.672Z,3564.00
2018-03-08T08:17:09.936Z,3540.00
2018-03-08T08:18:10.188Z,3352.00
2018-03-08T08:19:10.439Z,2988.00
2018-03-08T08:20:10.693Z,3000.00
2018-03-08T08:21:10.944Z,3060.00
2018-03-08T08:22:11.196Z,2820.00
2018-03-08T08:23:11.439Z,2700.00
2018-03-08T08:24:11.693Z,2996.00
2018-03-08T08:25:11.945Z,2828.00
2018-03-08T08:26:12.202Z,2756.00
2018-03-08T08:27:12.454Z,2896.00
2018-03-08T08:28:12.706Z,2884.00
2018-03-08T08:29:12.961Z,2660.00
2018-03-08T08:30:13.210Z,2804.00
2018-03-08T08:31:13.461Z,3500.00
2018-03-08T08:32:13.713Z,3828.00
2018-03-08T08:33:13.971Z,4444.00
2018-03-08T08:34:14.254Z,4576.00
2018-03-08T08:35:14.475Z,4204.00
2018-03-08T08:36:14.727Z,3972.00
2018-03-08T08:37:14.981Z,2988.00
2018-03-08T08:38:15.231Z,2552.00
2018-03-08T08:39:15.485Z,2684.00
2018-03-08T08:40:15.738Z,3404.00
2018-03-08T08:41:15.997Z,3972.00
2018-03-08T08:42:16.246Z,3424.00
2018-03-08T08:43:16.491Z,3292.00
2018-03-08T08:44:16.740Z,3244.00
2018-03-08T08:45:16.992Z,3392.00
2018-03-08T08:46:17.241Z,3524.00
2018-03-08T08:47:17.494Z,3704.00
2018-03-08T08:48:17.749Z,4040.00
2018-03-08T08:49:17.998Z,3792.00
2018-03-08T08:50:18.252Z,3384.00
2018-03-08T08:51:18.504Z,3556.00
2018-03-08T08:52:18.759Z,3800.00
2018-03-08T08:53:19.015Z,4084.00
2018-03-08T08:54:19.271Z,3832.00
2018-03-08T08:55:19.526Z,3432.00
2018-03-08T08:56:19.781Z,2836.00
2018-03-08T08:57:20.041Z,2412.00
2018-03-08T08:58:20.295Z,2464.00
2018-03-08T08:59:20.549Z,2636.00
2018-03-08T09:00:20.811Z,2564.00
2018-03-08T09:01:21.068Z,2584.00
2018-03-08T09:02:21.318Z,2552.00
2018-03-08T09:03:21.573Z,3056.00
2018-03-08T09:04:21.831Z,3416.00
2018-03-08T09:05:22.077Z,3656.00
2018-03-08T09:06:22.331Z,3688.00
2018-03-08T09:07:22.585Z,3624.00
2018-03-08T09:08:22.839Z,3992.00
2018-03-08T09:09:23.096Z,3980.00
2018-03-08T09:10:23.344Z,3980.00
2018-03-08T09:11:23.613Z,4548.00
2018-03-08T09:12:23.865Z,4260.00
2018-03-08T09:13:24.120Z,4220.00
2018-03-08T09:14:24.370Z,4764.00
2018-03-08T09:15:24.622Z,5132.00
2018-03-08T09:16:24.875Z,5592.00
2018-03-08T09:17:25.128Z,5380.00
2018-03-08T09:18:25.383Z,5244.00
2018-03-08T09:19:25.704Z,5588.00
2018-03-08T09:20:25.889Z,5452.00
2018-03-08T09:21:26.140Z,5324.00
2018-03-08T09:22:26.396Z,5356.00
2018-03-08T09:23:26.643Z,6068.00
2018-03-08T09:24:26.896Z,6188.00
2018-03-08T09:25:27.144Z,5508.00
2018-03-08T09:26:27.409Z,4716.00
2018-03-08T09:27:27.667Z,4220.00
2018-03-08T09:28:27.908Z,3692.00
2018-03-08T09:29:28.163Z,3304.00
2018-03-08T09:30:28.418Z,3140.00
2018-03-08T09:31:28.671Z,2828.00
2018-03-08T09:32:28.922Z,2780.00
2018-03-08T09:33:29.174Z,2692.00
2018-03-08T09:34:29.432Z,2424.00
2018-03-08T09:35:29.685Z,2636.00
2018-03-08T09:36:29.942Z,2700.00
2018-03-08T09:37:30.196Z,2736.00
2018-03-08T09:38:30.450Z,2540.00
2018-03-08T09:39:30.703Z,2664.00
2018-03-08T09:40:30.960Z,2500.00
2018-03-08T09:41:31.217Z,2404.00
2018-03-08T09:42:31.469Z,2696.00
2018-03-08T09:43:31.726Z,3080.00
2018-03-08T09:44:31.977Z,3728.00
2018-03-08T09:45:32.234Z,4892.00
2018-03-08T09:46:32.487Z,5392.00
2018-03-08T09:47:32.738Z,6124.00
2018-03-08T09:48:32.992Z,8084.00
2018-03-08T09:49:33.247Z,7220.00
2018-03-08T09:50:33.496Z,8336.00
2018-03-08T09:51:33.759Z,8516.00
2018-03-08T09:52:34.016Z,6368.00
2018-03-08T09:53:34.272Z,5944.00
2018-03-08T09:54:34.526Z,5932.00
2018-03-08T09:55:34.781Z,6900.00
2018-03-08T09:56:35.032Z,7036.00
2018-03-08T09:57:35.288Z,8692.00
2018-03-08T09:58:35.545Z,8284.00
2018-03-08T09:59:35.800Z,8324.00
2018-03-08T10:00:36.053Z,7812.00
2018-03-08T10:01:36.307Z,6732.00
2018-03-08T10:02:36.567Z,5500.00
2018-03-08T10:03:36.818Z,4640.00
2018-03-08T10:04:37.081Z,4668.00
2018-03-08T10:05:37.337Z,3836.00
2018-03-08T10:06:37.591Z,4020.00
2018-03-08T10:07:37.848Z,5912.00
2018-03-08T10:08:38.104Z,4532.00
2018-03-08T10:09:38.355Z,4060.00
2018-03-08T10:10:38.606Z,3836.00
2018-03-08T10:11:38.864Z,3500.00
2018-03-08T10:12:39.123Z,2948.00
2018-03-08T10:13:39.378Z,2876.00
2018-03-08T10:14:39.630Z,2972.00
2018-03-08T10:15:39.883Z,2768.00
2018-03-08T10:16:40.133Z,2900.00
2018-03-08T10:17:40.428Z,3124.00
2018-03-08T10:18:40.655Z,3336.00
2018-03-08T10:19:40.908Z,3272.00
2018-03-08T10:20:41.163Z,3192.00
2018-03-08T10:21:44.796Z,4128.00
2018-03-08T10:22:41.681Z,3320.00
2018-03-08T10:23:41.931Z,3240.00
2018-03-08T10:24:42.187Z,3272.00
2018-03-08T10:25:42.436Z,3088.00
2018-03-08T10:26:42.683Z,3048.00
2018-03-08T10:27:42.938Z,3232.00
2018-03-08T10:28:43.197Z,3428.00
2018-03-08T10:29:43.462Z,3700.00
2018-03-08T10:30:43.714Z,3576.00
2018-03-08T10:31:43.981Z,3908.00
2018-03-08T10:32:44.222Z,4220.00
2018-03-08T10:33:44.479Z,4396.00
2018-03-08T10:34:44.739Z,6660.00
2018-03-08T10:35:44.993Z,4796.00
2018-03-08T10:36:45.247Z,5220.00
2018-03-08T10:37:45.495Z,4824.00
2018-03-08T10:38:45.758Z,5608.00
2018-03-08T10:39:46.061Z,5208.00
2018-03-08T10:40:46.277Z,5584.00
2018-03-08T10:41:46.524Z,8224.00
2018-03-08T10:42:46.763Z,6676.00
2018-03-08T10:43:47.032Z,8864.00
2018-03-08T10:44:47.278Z,9820.00
2018-03-08T10:45:47.537Z,10232.00
2018-03-08T10:46:47.787Z,10316.00
2018-03-08T10:47:48.041Z,7908.00
2018-03-08T10:49:48.554Z,9020.00
2018-03-08T10:50:48.806Z,8236.00
2018-03-08T10:51:49.065Z,8148.00
2018-03-08T10:52:49.323Z,6120.00
2018-03-08T10:53:49.580Z,8260.00
2018-03-08T10:54:49.823Z,8408.00
2018-03-08T10:55:50.074Z,8008.00
2018-03-08T10:56:50.322Z,6584.00
2018-03-08T10:57:50.587Z,5284.00
2018-03-08T10:58:50.849Z,7020.00
2018-03-08T10:59:51.083Z,7564.00
2018-03-08T11:00:51.333Z,8520.00
2018-03-08T11:01:51.603Z,8656.00
2018-03-08T11:02:51.856Z,7660.00
2018-03-08T11:03:52.116Z,7492.00
2018-03-08T11:04:52.363Z,6900.00
2018-03-08T11:05:52.630Z,6080.00
2018-03-08T11:06:52.886Z,6224.00
2018-03-08T11:07:53.155Z,7240.00
2018-03-08T11:08:53.389Z,7876.00
2018-03-08T11:09:53.633Z,7088.00
2018-03-08T11:10:53.879Z,6460.00
2018-03-08T11:11:54.126Z,4488.00
2018-03-08T11:12:54.375Z,4860.00
2018-03-08T11:13:54.651Z,6316.00
2018-03-08T11:14:54.903Z,6576.00
2018-03-08T11:15:55.167Z,5900.00
2018-03-08T11:16:55.407Z,6064.00
2018-03-08T11:17:55.652Z,6324.00
2018-03-08T11:18:55.897Z,6728.00
2018-03-08T11:19:56.151Z,6396.00
2018-03-08T11:20:56.403Z,7096.00
2018-03-08T11:21:56.661Z,6776.00
2018-03-08T11:22:56.918Z,7016.00
2018-03-08T11:23:57.172Z,6508.00
2018-03-08T11:24:57.426Z,7580.00
2018-03-08T11:25:57.700Z,6540.00
2018-03-08T11:26:57.929Z,6484.00
2018-03-08T11:27:58.183Z,6456.00
2018-03-08T11:28:58.445Z,5520.00
2018-03-08T11:29:58.696Z,4580.00
2018-03-08T11:30:58.943Z,4628.00
2018-03-08T11:31:59.207Z,4688.00
2018-03-08T11:32:59.448Z,4400.00
2018-03-08T11:33:59.704Z,4204.00
2018-03-08T11:34:59.951Z,4548.00
2018-03-08T11:36:14.716Z,4420.00
2018-03-08T11:37:00.507Z,4032.00
2018-03-08T11:38:00.768Z,3904.00
2018-03-08T11:39:01.005Z,3560.00
2018-03-08T11:40:02.680Z,3648.00
2018-03-08T11:41:01.834Z,3832.00
2018-03-08T11:42:01.792Z,4412.00
2018-03-08T11:43:02.041Z,5344.00
2018-03-08T11:44:02.267Z,6196.00
2018-03-08T11:45:02.521Z,7128.00
2018-03-08T11:46:02.778Z,6712.00
2018-03-08T11:47:03.035Z,6924.00
2018-03-08T11:48:03.281Z,7028.00
2018-03-08T11:49:03.532Z,6672.00
2018-03-08T11:50:03.787Z,5752.00
2018-03-08T11:51:04.026Z,5132.00
2018-03-08T11:52:04.299Z,4800.00
2018-03-08T11:53:04.540Z,4420.00
2018-03-08T11:54:04.794Z,3756.00
2018-03-08T11:55:05.058Z,3320.00
2018-03-08T11:56:05.309Z,3088.00
2018-03-08T11:57:05.572Z,2920.00
2018-03-08T11:58:05.840Z,3004.00
2018-03-08T11:59:06.133Z,3068.00
2018-03-08T12:00:06.359Z,3028.00
2018-03-08T12:01:06.616Z,3060.00
2018-03-08T12:02:06.879Z,3564.00
2018-03-08T12:03:07.129Z,3620.00
2018-03-08T12:04:07.364Z,3388.00
2018-03-08T12:05:07.619Z,3240.00
2018-03-08T12:06:07.862Z,3808.00
2018-03-08T12:07:08.115Z,3828.00
2018-03-08T12:08:08.365Z,4380.00
2018-03-08T12:09:08.628Z,4988.00
2018-03-08T12:10:08.858Z,5628.00
2018-03-08T12:11:09.157Z,5784.00
2018-03-08T12:12:09.434Z,6452.00
2018-03-08T12:13:09.663Z,6952.00
2018-03-08T12:14:09.910Z,6732.00
2018-03-08T12:15:10.152Z,6580.00
2018-03-08T12:16:10.411Z,6284.00
2018-03-08T12:17:10.681Z,5868.00
2018-03-08T12:18:10.891Z,5896.00
2018-03-08T12:19:11.203Z,5764.00
2018-03-08T12:20:11.462Z,5356.00
2018-03-08T12:21:11.706Z,5160.00
2018-03-08T12:22:11.964Z,4932.00
2018-03-08T12:23:12.185Z,4628.00
2018-03-08T12:24:12.425Z,4668.00
2018-03-08T12:25:12.681Z,4860.00
2018-03-08T12:26:12.939Z,4928.00
2018-03-08T12:27:13.188Z,4800.00
2018-03-08T12:28:13.428Z,4680.00
2018-03-08T12:29:13.677Z,4716.00
2018-03-08T12:30:13.928Z,4576.00
2018-03-08T12:31:14.171Z,4556.00
2018-03-08T12:32:14.419Z,4392.00
2018-03-08T12:33:14.671Z,3912.00
2018-03-08T12:34:14.917Z,3856.00
2018-03-08T12:35:15.172Z,4132.00
2018-03-08T12:36:30.210Z,4160.00
2018-03-08T12:37:15.771Z,4256.00
2018-03-08T12:38:16.021Z,4344.00
2018-03-08T12:39:16.268Z,4408.00
2018-03-08T12:40:16.536Z,4572.00
2018-03-08T12:41:16.773Z,4580.00
2018-03-08T12:42:17.011Z,5184.00
2018-03-08T12:43:17.264Z,5440.00
2018-03-08T12:44:17.493Z,5704.00